sensor_id;sensor_type;location;lat;lon;timestamp;temperature;humidity
14699;DHT22;7439;50.804;4.602;2022-11-12T00:02:06;2.90;1.00
14699;DHT22;7439;50.804;4.602;2022-11-12T00:04:33;2.80;1.00
14699;DHT22;7439;50.804;4.602;2022-11-12T00:07:00;2.90;1.00
14699;DHT22;7439;50.804;4.602;2022-11-12T00:09:27;2.90;1.00
14699;DHT22;7439;50.804;4.602;2022-11-12T00:11:54;2.80;1.00
14699;DHT22;7439;50.804;4.602;2022-11-12T00:14:23;2.80;1.00
14699;DHT22;7439;50.804;4.602;2022-11-12T00:16:50;2.80;1.00
14699;DHT22;7439;50.804;4.602;2022-11-12T00:19:17;2.80;1.00
14699;DHT22;7439;50.804;4.602;2022-11-12T00:21:44;2.90;1.00
14699;DHT22;7439;50.804;4.602;2022-11-12T00:24:11;2.80;1.00
14699;DHT22;7439;50.804;4.602;2022-11-12T00:26:38;2.90;1.00
14699;DHT22;7439;50.804;4.602;2022-11-12T00:29:05;2.80;1.00
14699;DHT22;7439;50.804;4.602;2022-11-12T00:31:34;2.70;1.00
14699;DHT22;7439;50.804;4.602;2022-11-12T00:34:01;2.70;1.00
14699;DHT22;7439;50.804;4.602;2022-11-12T00:36:29;2.60;1.00
14699;DHT22;7439;50.804;4.602;2022-11-12T00:38:56;2.60;1.00
14699;DHT22;7439;50.804;4.602;2022-11-12T00:41:23;2.60;1.00
14699;DHT22;7439;50.804;4.602;2022-11-12T00:43:50;2.60;1.00
14699;DHT22;7439;50.804;4.602;2022-11-12T00:46:17;2.60;1.00
14699;DHT22;7439;50.804;4.602;2022-11-12T00:48:46;2.70;8.10
14699;DHT22;7439;50.804;4.602;2022-11-12T00:51:13;2.70;32.20
14699;DHT22;7439;50.804;4.602;2022-11-12T00:53:40;2.70;41.90
14699;DHT22;7439;50.804;4.602;2022-11-12T00:56:08;2.70;55.20
14699;DHT22;7439;50.804;4.602;2022-11-12T00:58:35;2.70;97.20
14699;DHT22;7439;50.804;4.602;2022-11-12T01:01:07;2.80;99.90
14699;DHT22;7439;50.804;4.602;2022-11-12T01:03:35;2.70;75.60
14699;DHT22;7439;50.804;4.602;2022-11-12T01:06:05;2.50;1.00
14699;DHT22;7439;50.804;4.602;2022-11-12T01:08:32;2.50;1.00
14699;DHT22;7439;50.804;4.602;2022-11-12T01:11:07;2.50;1.00
14699;DHT22;7439;50.804;4.602;2022-11-12T01:13:35;2.40;1.00
14699;DHT22;7439;50.804;4.602;2022-11-12T01:16:05;2.40;1.00
14699;DHT22;7439;50.804;4.602;2022-11-12T01:18:32;2.40;1.00
14699;DHT22;7439;50.804;4.602;2022-11-12T01:20:59;2.50;18.40
14699;DHT22;7439;50.804;4.602;2022-11-12T01:23:30;2.50;87.60
14699;DHT22;7439;50.804;4.602;2022-11-12T01:25:58;2.40;99.90
14699;DHT22;7439;50.804;4.602;2022-11-12T01:28:29;2.40;99.90
14699;DHT22;7439;50.804;4.602;2022-11-12T01:30:56;2.60;99.90
14699;DHT22;7439;50.804;4.602;2022-11-12T01:33:23;2.50;99.90
14699;DHT22;7439;50.804;4.602;2022-11-12T01:35:50;2.50;99.90
14699;DHT22;7439;50.804;4.602;2022-11-12T01:38:17;2.40;99.90
14699;DHT22;7439;50.804;4.602;2022-11-12T01:40:46;2.30;99.90
14699;DHT22;7439;50.804;4.602;2022-11-12T01:43:14;2.30;99.90
14699;DHT22;7439;50.804;4.602;2022-11-12T01:45:44;2.20;99.90
14699;DHT22;7439;50.804;4.602;2022-11-12T01:48:19;2.20;99.90
14699;DHT22;7439;50.804;4.602;2022-11-12T01:50:50;2.20;99.90
14699;DHT22;7439;50.804;4.602;2022-11-12T01:53:19;2.30;99.90
14699;DHT22;7439;50.804;4.602;2022-11-12T01:55:50;2.30;99.90
14699;DHT22;7439;50.804;4.602;2022-11-12T01:58:20;2.30;99.90
14699;DHT22;7439;50.804;4.602;2022-11-12T02:00:48;2.30;99.90
14699;DHT22;7439;50.804;4.602;2022-11-12T02:03:19;2.20;99.90
14699;DHT22;7439;50.804;4.602;2022-11-12T02:05:50;2.20;99.90
14699;DHT22;7439;50.804;4.602;2022-11-12T02:08:18;2.20;99.90
14699;DHT22;7439;50.804;4.602;2022-11-12T02:10:47;2.20;99.90
14699;DHT22;7439;50.804;4.602;2022-11-12T02:13:16;2.30;99.90
14699;DHT22;7439;50.804;4.602;2022-11-12T02:16:01;2.20;99.90
14699;DHT22;7439;50.804;4.602;2022-11-12T02:18:29;2.20;99.90
14699;DHT22;7439;50.804;4.602;2022-11-12T02:20:58;2.20;1.00
14699;DHT22;7439;50.804;4.602;2022-11-12T02:23:30;2.20;1.00
14699;DHT22;7439;50.804;4.602;2022-11-12T02:25:58;2.20;1.00
14699;DHT22;7439;50.804;4.602;2022-11-12T02:28:25;2.20;1.00
14699;DHT22;7439;50.804;4.602;2022-11-12T02:30:53;2.20;1.00
14699;DHT22;7439;50.804;4.602;2022-11-12T02:33:20;2.20;1.00
14699;DHT22;7439;50.804;4.602;2022-11-12T02:35:47;2.20;1.00
14699;DHT22;7439;50.804;4.602;2022-11-12T02:38:14;2.10;1.00
14699;DHT22;7439;50.804;4.602;2022-11-12T02:40:43;2.10;1.00
14699;DHT22;7439;50.804;4.602;2022-11-12T02:43:10;2.00;1.00
14699;DHT22;7439;50.804;4.602;2022-11-12T02:45:37;2.00;1.00
14699;DHT22;7439;50.804;4.602;2022-11-12T02:48:04;2.10;1.00
14699;DHT22;7439;50.804;4.602;2022-11-12T02:50:31;2.10;1.00
14699;DHT22;7439;50.804;4.602;2022-11-12T02:52:58;2.10;1.00
14699;DHT22;7439;50.804;4.602;2022-11-12T02:55:25;2.20;1.00
14699;DHT22;7439;50.804;4.602;2022-11-12T02:57:56;2.20;1.00
14699;DHT22;7439;50.804;4.602;2022-11-12T03:00:23;2.20;52.40
14699;DHT22;7439;50.804;4.602;2022-11-12T03:02:50;2.10;20.40
14699;DHT22;7439;50.804;4.602;2022-11-12T03:05:25;2.20;52.70
14699;DHT22;7439;50.804;4.602;2022-11-12T03:07:55;2.10;48.20
14699;DHT22;7439;50.804;4.602;2022-11-12T03:10:23;2.00;1.00
14699;DHT22;7439;50.804;4.602;2022-11-12T03:12:51;1.90;1.00
14699;DHT22;7439;50.804;4.602;2022-11-12T03:15:19;2.00;52.20
14699;DHT22;7439;50.804;4.602;2022-11-12T03:17:47;1.90;86.30
14699;DHT22;7439;50.804;4.602;2022-11-12T03:20:15;2.00;99.90
14699;DHT22;7439;50.804;4.602;2022-11-12T03:22:42;1.90;99.90
14699;DHT22;7439;50.804;4.602;2022-11-12T03:25:09;1.90;99.90
14699;DHT22;7439;50.804;4.602;2022-11-12T03:27:36;2.00;99.90
14699;DHT22;7439;50.804;4.602;2022-11-12T03:30:04;1.90;99.90
14699;DHT22;7439;50.804;4.602;2022-11-12T03:32:33;2.00;99.90
14699;DHT22;7439;50.804;4.602;2022-11-12T03:35:00;1.90;99.90
14699;DHT22;7439;50.804;4.602;2022-11-12T03:37:27;1.90;99.90
14699;DHT22;7439;50.804;4.602;2022-11-12T03:39:54;1.90;99.90
14699;DHT22;7439;50.804;4.602;2022-11-12T03:42:21;2.00;99.90
14699;DHT22;7439;50.804;4.602;2022-11-12T03:44:48;2.00;1.00
14699;DHT22;7439;50.804;4.602;2022-11-12T03:47:15;1.90;99.90
14699;DHT22;7439;50.804;4.602;2022-11-12T03:49:44;2.00;99.90
14699;DHT22;7439;50.804;4.602;2022-11-12T03:52:11;1.90;99.90
14699;DHT22;7439;50.804;4.602;2022-11-12T03:54:38;1.80;99.90
14699;DHT22;7439;50.804;4.602;2022-11-12T03:57:05;1.70;99.90
14699;DHT22;7439;50.804;4.602;2022-11-12T03:59:32;1.80;99.90
14699;DHT22;7439;50.804;4.602;2022-11-12T04:02:00;1.70;99.90
14699;DHT22;7439;50.804;4.602;2022-11-12T04:04:27;1.70;99.90
14699;DHT22;7439;50.804;4.602;2022-11-12T04:07:15;1.70;99.90
14699;DHT22;7439;50.804;4.602;2022-11-12T04:09:59;1.80;1.00
14699;DHT22;7439;50.804;4.602;2022-11-12T04:12:27;1.70;1.00
14699;DHT22;7439;50.804;4.602;2022-11-12T04:15:11;1.80;1.00
14699;DHT22;7439;50.804;4.602;2022-11-12T04:17:38;1.70;1.00
14699;DHT22;7439;50.804;4.602;2022-11-12T04:20:23;1.60;99.90
14699;DHT22;7439;50.804;4.602;2022-11-12T04:23:09;1.60;99.90
14699;DHT22;7439;50.804;4.602;2022-11-12T04:25:36;1.60;99.90
14699;DHT22;7439;50.804;4.602;2022-11-12T04:28:20;1.60;1.00
14699;DHT22;7439;50.804;4.602;2022-11-12T04:30:47;1.60;1.00
14699;DHT22;7439;50.804;4.602;2022-11-12T04:33:13;1.60;1.00
14699;DHT22;7439;50.804;4.602;2022-11-12T04:35:40;1.60;1.00
14699;DHT22;7439;50.804;4.602;2022-11-12T04:38:09;1.50;1.00
14699;DHT22;7439;50.804;4.602;2022-11-12T04:40:36;1.50;1.00
14699;DHT22;7439;50.804;4.602;2022-11-12T04:43:20;1.50;1.00
14699;DHT22;7439;50.804;4.602;2022-11-12T04:46:05;1.50;1.00
14699;DHT22;7439;50.804;4.602;2022-11-12T04:48:32;1.60;1.00
14699;DHT22;7439;50.804;4.602;2022-11-12T04:51:01;1.50;1.00
14699;DHT22;7439;50.804;4.602;2022-11-12T04:53:29;1.50;1.00
14699;DHT22;7439;50.804;4.602;2022-11-12T04:55:57;1.50;1.00
14699;DHT22;7439;50.804;4.602;2022-11-12T04:58:25;1.40;1.00
14699;DHT22;7439;50.804;4.602;2022-11-12T05:00:52;1.60;1.00
14699;DHT22;7439;50.804;4.602;2022-11-12T05:03:19;1.50;1.00
14699;DHT22;7439;50.804;4.602;2022-11-12T05:05:46;1.50;1.00
14699;DHT22;7439;50.804;4.602;2022-11-12T05:08:13;1.50;1.00
14699;DHT22;7439;50.804;4.602;2022-11-12T05:10:43;1.50;1.00
14699;DHT22;7439;50.804;4.602;2022-11-12T05:13:10;1.50;1.00
14699;DHT22;7439;50.804;4.602;2022-11-12T05:15:37;1.50;1.00
14699;DHT22;7439;50.804;4.602;2022-11-12T05:18:04;1.60;1.00
14699;DHT22;7439;50.804;4.602;2022-11-12T05:20:31;1.50;1.00
14699;DHT22;7439;50.804;4.602;2022-11-12T05:22:59;1.50;1.00
14699;DHT22;7439;50.804;4.602;2022-11-12T05:25:26;1.50;1.00
14699;DHT22;7439;50.804;4.602;2022-11-12T05:27:55;1.40;1.00
14699;DHT22;7439;50.804;4.602;2022-11-12T05:30:22;1.40;1.00
14699;DHT22;7439;50.804;4.602;2022-11-12T05:32:49;1.30;1.00
14699;DHT22;7439;50.804;4.602;2022-11-12T05:35:16;1.30;1.00
14699;DHT22;7439;50.804;4.602;2022-11-12T05:37:43;1.30;1.00
14699;DHT22;7439;50.804;4.602;2022-11-12T05:40:11;1.20;1.00
14699;DHT22;7439;50.804;4.602;2022-11-12T05:42:38;1.30;1.00
14699;DHT22;7439;50.804;4.602;2022-11-12T05:45:08;1.40;1.00
14699;DHT22;7439;50.804;4.602;2022-11-12T05:47:35;1.40;1.00
14699;DHT22;7439;50.804;4.602;2022-11-12T05:50:02;1.50;1.00
14699;DHT22;7439;50.804;4.602;2022-11-12T05:52:30;1.50;1.00
14699;DHT22;7439;50.804;4.602;2022-11-12T05:54:56;1.50;1.00
14699;DHT22;7439;50.804;4.602;2022-11-12T05:57:26;1.40;1.00
14699;DHT22;7439;50.804;4.602;2022-11-12T05:59:53;1.30;1.00
14699;DHT22;7439;50.804;4.602;2022-11-12T06:02:21;1.20;1.00
14699;DHT22;7439;50.804;4.602;2022-11-12T06:04:48;1.20;1.00
14699;DHT22;7439;50.804;4.602;2022-11-12T06:07:15;1.10;1.00
14699;DHT22;7439;50.804;4.602;2022-11-12T06:09:42;1.10;1.00
14699;DHT22;7439;50.804;4.602;2022-11-12T06:12:09;1.10;1.00
14699;DHT22;7439;50.804;4.602;2022-11-12T06:14:37;1.10;1.00
14699;DHT22;7439;50.804;4.602;2022-11-12T06:17:04;1.20;1.00
14699;DHT22;7439;50.804;4.602;2022-11-12T06:19:32;1.10;1.00
14699;DHT22;7439;50.804;4.602;2022-11-12T06:21:59;1.10;1.00
14699;DHT22;7439;50.804;4.602;2022-11-12T06:24:26;1.10;1.00
14699;DHT22;7439;50.804;4.602;2022-11-12T06:26:55;1.10;1.00
14699;DHT22;7439;50.804;4.602;2022-11-12T06:29:22;1.10;1.00
14699;DHT22;7439;50.804;4.602;2022-11-12T06:31:49;1.10;1.00
14699;DHT22;7439;50.804;4.602;2022-11-12T06:34:16;1.10;1.00
14699;DHT22;7439;50.804;4.602;2022-11-12T06:36:45;1.10;1.00
14699;DHT22;7439;50.804;4.602;2022-11-12T06:39:13;1.10;1.00
14699;DHT22;7439;50.804;4.602;2022-11-12T06:41:40;1.10;1.00
14699;DHT22;7439;50.804;4.602;2022-11-12T06:44:07;1.10;1.00
14699;DHT22;7439;50.804;4.602;2022-11-12T06:46:34;1.10;1.00
14699;DHT22;7439;50.804;4.602;2022-11-12T06:49:02;1.20;1.00
14699;DHT22;7439;50.804;4.602;2022-11-12T06:51:29;1.20;17.90
14699;DHT22;7439;50.804;4.602;2022-11-12T06:53:58;1.20;96.40
14699;DHT22;7439;50.804;4.602;2022-11-12T06:56:25;1.20;99.90
14699;DHT22;7439;50.804;4.602;2022-11-12T06:58:52;1.20;99.90
14699;DHT22;7439;50.804;4.602;2022-11-12T07:01:19;1.20;99.90
14699;DHT22;7439;50.804;4.602;2022-11-12T07:03:50;1.20;99.90
14699;DHT22;7439;50.804;4.602;2022-11-12T07:06:18;1.30;99.90
14699;DHT22;7439;50.804;4.602;2022-11-12T07:08:45;1.40;99.90
14699;DHT22;7439;50.804;4.602;2022-11-12T07:11:15;1.40;99.90
14699;DHT22;7439;50.804;4.602;2022-11-12T07:13:43;1.50;1.00
14699;DHT22;7439;50.804;4.602;2022-11-12T07:16:10;1.50;1.00
14699;DHT22;7439;50.804;4.602;2022-11-12T07:18:38;1.50;1.00
14699;DHT22;7439;50.804;4.602;2022-11-12T07:21:07;1.60;1.00
14699;DHT22;7439;50.804;4.602;2022-11-12T07:23:35;1.50;1.00
14699;DHT22;7439;50.804;4.602;2022-11-12T07:26:04;1.50;1.00
14699;DHT22;7439;50.804;4.602;2022-11-12T07:28:33;1.50;1.00
14699;DHT22;7439;50.804;4.602;2022-11-12T07:31:02;1.50;1.00
14699;DHT22;7439;50.804;4.602;2022-11-12T07:33:30;1.50;1.00
14699;DHT22;7439;50.804;4.602;2022-11-12T07:35:58;1.60;1.00
14699;DHT22;7439;50.804;4.602;2022-11-12T07:38:26;1.60;1.00
14699;DHT22;7439;50.804;4.602;2022-11-12T07:40:58;1.60;1.00
14699;DHT22;7439;50.804;4.602;2022-11-12T07:43:26;1.60;13.30
14699;DHT22;7439;50.804;4.602;2022-11-12T07:45:58;1.70;99.90
14699;DHT22;7439;50.804;4.602;2022-11-12T07:48:26;2.00;1.00
14699;DHT22;7439;50.804;4.602;2022-11-12T07:50:59;2.70;99.90
14699;DHT22;7439;50.804;4.602;2022-11-12T07:53:26;3.10;99.90
14699;DHT22;7439;50.804;4.602;2022-11-12T07:55:54;3.60;1.00
14699;DHT22;7439;50.804;4.602;2022-11-12T07:58:22;3.80;16.50
14699;DHT22;7439;50.804;4.602;2022-11-12T08:00:49;4.00;20.80
14699;DHT22;7439;50.804;4.602;2022-11-12T08:03:18;4.40;99.90
14699;DHT22;7439;50.804;4.602;2022-11-12T08:05:46;4.60;1.00
14699;DHT22;7439;50.804;4.602;2022-11-12T08:08:13;4.80;99.90
14699;DHT22;7439;50.804;4.602;2022-11-12T08:10:41;5.20;1.00
14699;DHT22;7439;50.804;4.602;2022-11-12T08:13:08;5.40;99.90
14699;DHT22;7439;50.804;4.602;2022-11-12T08:15:35;5.60;1.00
14699;DHT22;7439;50.804;4.602;2022-11-12T08:18:02;5.70;99.90
14699;DHT22;7439;50.804;4.602;2022-11-12T08:20:31;6.00;1.00
14699;DHT22;7439;50.804;4.602;2022-11-12T08:23:01;6.50;99.90
14699;DHT22;7439;50.804;4.602;2022-11-12T08:25:28;6.80;1.00
14699;DHT22;7439;50.804;4.602;2022-11-12T08:27:56;7.00;1.00
14699;DHT22;7439;50.804;4.602;2022-11-12T08:30:24;7.30;99.50
14699;DHT22;7439;50.804;4.602;2022-11-12T08:32:55;7.70;99.90
14699;DHT22;7439;50.804;4.602;2022-11-12T08:35:24;7.80;99.90
14699;DHT22;7439;50.804;4.602;2022-11-12T08:37:56;8.10;1.00
14699;DHT22;7439;50.804;4.602;2022-11-12T08:40:24;8.30;11.30
14699;DHT22;7439;50.804;4.602;2022-11-12T08:42:56;8.30;99.90
14699;DHT22;7439;50.804;4.602;2022-11-12T08:45:23;8.30;1.00
14699;DHT22;7439;50.804;4.602;2022-11-12T08:47:51;8.60;99.90
14699;DHT22;7439;50.804;4.602;2022-11-12T08:50:18;9.50;1.00
14699;DHT22;7439;50.804;4.602;2022-11-12T08:52:45;10.10;99.90
14699;DHT22;7439;50.804;4.602;2022-11-12T08:55:14;10.60;99.90
14699;DHT22;7439;50.804;4.602;2022-11-12T08:57:41;10.90;1.00
14699;DHT22;7439;50.804;4.602;2022-11-12T09:00:10;11.40;1.00
14699;DHT22;7439;50.804;4.602;2022-11-12T09:02:37;11.30;99.90
14699;DHT22;7439;50.804;4.602;2022-11-12T09:05:05;11.10;99.90
14699;DHT22;7439;50.804;4.602;2022-11-12T09:07:32;11.10;1.00
14699;DHT22;7439;50.804;4.602;2022-11-12T09:09:59;11.10;1.00
14699;DHT22;7439;50.804;4.602;2022-11-12T09:12:28;11.20;1.00
14699;DHT22;7439;50.804;4.602;2022-11-12T09:15:00;11.40;1.00
14699;DHT22;7439;50.804;4.602;2022-11-12T09:17:27;11.90;1.00
14699;DHT22;7439;50.804;4.602;2022-11-12T09:19:55;12.20;1.00
14699;DHT22;7439;50.804;4.602;2022-11-12T09:22:22;12.60;1.00
14699;DHT22;7439;50.804;4.602;2022-11-12T09:24:50;12.70;1.00
14699;DHT22;7439;50.804;4.602;2022-11-12T09:27:17;13.00;99.90
14699;DHT22;7439;50.804;4.602;2022-11-12T09:29:45;13.30;99.90
14699;DHT22;7439;50.804;4.602;2022-11-12T09:32:12;13.90;99.90
14699;DHT22;7439;50.804;4.602;2022-11-12T09:34:39;14.00;99.90
14699;DHT22;7439;50.804;4.602;2022-11-12T09:37:06;14.40;99.90
14699;DHT22;7439;50.804;4.602;2022-11-12T09:39:33;14.80;99.90
14699;DHT22;7439;50.804;4.602;2022-11-12T09:42:05;15.50;99.90
14699;DHT22;7439;50.804;4.602;2022-11-12T09:44:34;15.80;99.90
14699;DHT22;7439;50.804;4.602;2022-11-12T09:47:11;15.70;99.90
14699;DHT22;7439;50.804;4.602;2022-11-12T09:49:43;15.70;99.90
14699;DHT22;7439;50.804;4.602;2022-11-12T09:52:16;16.00;99.90
14699;DHT22;7439;50.804;4.602;2022-11-12T09:54:49;16.30;99.90
14699;DHT22;7439;50.804;4.602;2022-11-12T09:57:18;17.00;99.90
14699;DHT22;7439;50.804;4.602;2022-11-12T09:59:45;17.30;99.90
14699;DHT22;7439;50.804;4.602;2022-11-12T10:02:26;17.70;99.90
14699;DHT22;7439;50.804;4.602;2022-11-12T10:05:05;18.20;99.90
14699;DHT22;7439;50.804;4.602;2022-11-12T10:07:47;18.40;99.90
14699;DHT22;7439;50.804;4.602;2022-11-12T10:10:19;18.80;99.90
14699;DHT22;7439;50.804;4.602;2022-11-12T10:12:59;19.00;99.90
14699;DHT22;7439;50.804;4.602;2022-11-12T10:15:36;19.00;99.90
14699;DHT22;7439;50.804;4.602;2022-11-12T10:18:29;19.30;99.90
14699;DHT22;7439;50.804;4.602;2022-11-12T10:21:04;19.60;99.90
14699;DHT22;7439;50.804;4.602;2022-11-12T10:23:41;20.10;99.90
14699;DHT22;7439;50.804;4.602;2022-11-12T10:26:11;20.60;99.90
14699;DHT22;7439;50.804;4.602;2022-11-12T10:28:42;20.90;97.40
14699;DHT22;7439;50.804;4.602;2022-11-12T10:31:11;21.30;92.40
14699;DHT22;7439;50.804;4.602;2022-11-12T10:33:40;21.40;81.00
14699;DHT22;7439;50.804;4.602;2022-11-12T10:36:19;21.40;66.20
14699;DHT22;7439;50.804;4.602;2022-11-12T10:38:52;21.50;56.00
14699;DHT22;7439;50.804;4.602;2022-11-12T10:41:22;21.70;48.60
14699;DHT22;7439;50.804;4.602;2022-11-12T10:43:54;22.10;43.00
14699;DHT22;7439;50.804;4.602;2022-11-12T10:46:24;22.50;34.70
14699;DHT22;7439;50.804;4.602;2022-11-12T10:48:59;22.40;27.30
14699;DHT22;7439;50.804;4.602;2022-11-12T10:51:29;22.90;23.70
14699;DHT22;7439;50.804;4.602;2022-11-12T10:53:57;23.40;18.60
14699;DHT22;7439;50.804;4.602;2022-11-12T10:56:27;23.40;30.60
14699;DHT22;7439;50.804;4.602;2022-11-12T10:59:09;23.90;8.70
14699;DHT22;7439;50.804;4.602;2022-11-12T11:01:36;23.60;1.00
14699;DHT22;7439;50.804;4.602;2022-11-12T11:04:19;23.80;1.00
14699;DHT22;7439;50.804;4.602;2022-11-12T11:06:57;23.80;1.00
14699;DHT22;7439;50.804;4.602;2022-11-12T11:09:25;24.10;1.00
14699;DHT22;7439;50.804;4.602;2022-11-12T11:11:53;24.50;1.00
14699;DHT22;7439;50.804;4.602;2022-11-12T11:14:26;25.20;1.00
14699;DHT22;7439;50.804;4.602;2022-11-12T11:16:55;25.30;1.00
14699;DHT22;7439;50.804;4.602;2022-11-12T11:19:30;26.00;1.00
14699;DHT22;7439;50.804;4.602;2022-11-12T11:22:22;26.10;1.00
14699;DHT22;7439;50.804;4.602;2022-11-12T11:27:59;24.60;1.00
14699;DHT22;7439;50.804;4.602;2022-11-12T11:30:27;23.80;1.00
14699;DHT22;7439;50.804;4.602;2022-11-12T11:33:23;23.50;1.00
14699;DHT22;7439;50.804;4.602;2022-11-12T11:36:09;23.30;1.00
14699;DHT22;7439;50.804;4.602;2022-11-12T11:38:50;22.70;1.00
14699;DHT22;7439;50.804;4.602;2022-11-12T11:41:44;22.70;1.00
14699;DHT22;7439;50.804;4.602;2022-11-12T11:44:18;23.50;1.00
14699;DHT22;7439;50.804;4.602;2022-11-12T11:46:59;24.40;1.00
14699;DHT22;7439;50.804;4.602;2022-11-12T11:52:44;24.60;1.00
14699;DHT22;7439;50.804;4.602;2022-11-12T11:58:10;24.50;1.00
14699;DHT22;7439;50.804;4.602;2022-11-12T12:00:46;24.50;1.00
14699;DHT22;7439;50.804;4.602;2022-11-12T12:03:20;24.30;1.00
14699;DHT22;7439;50.804;4.602;2022-11-12T12:09:02;24.40;1.00
14699;DHT22;7439;50.804;4.602;2022-11-12T12:11:38;25.00;1.00
14699;DHT22;7439;50.804;4.602;2022-11-12T12:14:20;24.90;1.00
14699;DHT22;7439;50.804;4.602;2022-11-12T12:16:58;25.00;1.00
14699;DHT22;7439;50.804;4.602;2022-11-12T12:19:40;25.30;1.00
14699;DHT22;7439;50.804;4.602;2022-11-12T12:22:12;25.60;1.00
14699;DHT22;7439;50.804;4.602;2022-11-12T12:24:46;25.20;1.00
14699;DHT22;7439;50.804;4.602;2022-11-12T12:27:17;25.30;1.00
14699;DHT22;7439;50.804;4.602;2022-11-12T12:29:47;25.70;1.00
14699;DHT22;7439;50.804;4.602;2022-11-12T12:32:18;26.20;1.00
14699;DHT22;7439;50.804;4.602;2022-11-12T12:34:50;26.30;1.00
14699;DHT22;7439;50.804;4.602;2022-11-12T12:37:25;26.40;1.00
14699;DHT22;7439;50.804;4.602;2022-11-12T12:40:02;25.50;1.00
14699;DHT22;7439;50.804;4.602;2022-11-12T12:42:33;25.60;1.00
14699;DHT22;7439;50.804;4.602;2022-11-12T12:45:35;25.70;1.00
14699;DHT22;7439;50.804;4.602;2022-11-12T12:48:06;25.10;1.00
14699;DHT22;7439;50.804;4.602;2022-11-12T12:50:37;24.70;1.00
14699;DHT22;7439;50.804;4.602;2022-11-12T12:53:16;24.90;1.00
14699;DHT22;7439;50.804;4.602;2022-11-12T12:55:46;24.60;1.00
14699;DHT22;7439;50.804;4.602;2022-11-12T12:58:20;24.30;1.00
14699;DHT22;7439;50.804;4.602;2022-11-12T13:00:51;24.50;1.00
14699;DHT22;7439;50.804;4.602;2022-11-12T13:03:48;24.90;1.00
14699;DHT22;7439;50.804;4.602;2022-11-12T13:06:25;24.90;1.00
14699;DHT22;7439;50.804;4.602;2022-11-12T13:08:56;24.80;1.00
14699;DHT22;7439;50.804;4.602;2022-11-12T13:11:48;24.30;1.00
14699;DHT22;7439;50.804;4.602;2022-11-12T13:17:49;23.40;1.00
14699;DHT22;7439;50.804;4.602;2022-11-12T13:20:34;23.20;1.00
14699;DHT22;7439;50.804;4.602;2022-11-12T13:23:01;23.10;1.00
14699;DHT22;7439;50.804;4.602;2022-11-12T13:25:30;22.90;1.00
14699;DHT22;7439;50.804;4.602;2022-11-12T13:28:12;22.90;1.00
14699;DHT22;7439;50.804;4.602;2022-11-12T13:30:58;22.00;1.00
14699;DHT22;7439;50.804;4.602;2022-11-12T13:33:29;21.20;1.00
14699;DHT22;7439;50.804;4.602;2022-11-12T13:36:23;21.00;1.00
14699;DHT22;7439;50.804;4.602;2022-11-12T13:38:51;21.20;1.00
14699;DHT22;7439;50.804;4.602;2022-11-12T13:41:20;21.10;1.00
14699;DHT22;7439;50.804;4.602;2022-11-12T13:44:13;20.80;1.00
14699;DHT22;7439;50.804;4.602;2022-11-12T13:46:41;20.60;1.00
14699;DHT22;7439;50.804;4.602;2022-11-12T13:49:13;20.40;1.00
14699;DHT22;7439;50.804;4.602;2022-11-12T13:51:42;20.20;1.00
14699;DHT22;7439;50.804;4.602;2022-11-12T13:54:27;20.00;1.00
14699;DHT22;7439;50.804;4.602;2022-11-12T13:56:55;20.20;1.00
14699;DHT22;7439;50.804;4.602;2022-11-12T13:59:24;20.40;1.00
14699;DHT22;7439;50.804;4.602;2022-11-12T14:01:51;20.10;1.00
14699;DHT22;7439;50.804;4.602;2022-11-12T14:04:21;20.10;1.00
14699;DHT22;7439;50.804;4.602;2022-11-12T14:06:51;20.10;1.00
14699;DHT22;7439;50.804;4.602;2022-11-12T14:09:31;19.90;1.00
14699;DHT22;7439;50.804;4.602;2022-11-12T14:12:19;19.60;1.00
14699;DHT22;7439;50.804;4.602;2022-11-12T14:15:02;19.40;1.00
14699;DHT22;7439;50.804;4.602;2022-11-12T14:17:37;19.10;1.00
14699;DHT22;7439;50.804;4.602;2022-11-12T14:20:24;18.90;1.00
14699;DHT22;7439;50.804;4.602;2022-11-12T14:22:53;19.00;1.00
14699;DHT22;7439;50.804;4.602;2022-11-12T14:25:22;19.10;1.00
14699;DHT22;7439;50.804;4.602;2022-11-12T14:27:51;19.20;1.00
14699;DHT22;7439;50.804;4.602;2022-11-12T14:30:22;19.00;1.00
14699;DHT22;7439;50.804;4.602;2022-11-12T14:32:51;18.80;1.00
14699;DHT22;7439;50.804;4.602;2022-11-12T14:35:27;18.70;1.00
14699;DHT22;7439;50.804;4.602;2022-11-12T14:37:59;18.50;1.00
14699;DHT22;7439;50.804;4.602;2022-11-12T14:40:30;18.40;1.00
14699;DHT22;7439;50.804;4.602;2022-11-12T14:42:57;18.60;1.00
14699;DHT22;7439;50.804;4.602;2022-11-12T14:45:26;18.30;1.00
14699;DHT22;7439;50.804;4.602;2022-11-12T14:47:54;18.20;1.00
14699;DHT22;7439;50.804;4.602;2022-11-12T14:50:26;18.10;1.00
14699;DHT22;7439;50.804;4.602;2022-11-12T14:52:57;18.10;1.00
14699;DHT22;7439;50.804;4.602;2022-11-12T14:55:28;17.80;1.00
14699;DHT22;7439;50.804;4.602;2022-11-12T14:57:56;17.40;1.00
14699;DHT22;7439;50.804;4.602;2022-11-12T15:00:41;17.00;1.00
14699;DHT22;7439;50.804;4.602;2022-11-12T15:03:13;16.80;1.00
14699;DHT22;7439;50.804;4.602;2022-11-12T15:06:08;16.80;1.00
14699;DHT22;7439;50.804;4.602;2022-11-12T15:08:37;16.90;1.00
14699;DHT22;7439;50.804;4.602;2022-11-12T15:11:17;16.90;1.00
14699;DHT22;7439;50.804;4.602;2022-11-12T15:13:45;16.70;1.00
14699;DHT22;7439;50.804;4.602;2022-11-12T15:16:18;16.80;1.00
14699;DHT22;7439;50.804;4.602;2022-11-12T15:19:03;17.10;1.00
14699;DHT22;7439;50.804;4.602;2022-11-12T15:21:31;17.10;1.00
14699;DHT22;7439;50.804;4.602;2022-11-12T15:24:04;16.80;1.00
14699;DHT22;7439;50.804;4.602;2022-11-12T15:26:34;16.50;1.00
14699;DHT22;7439;50.804;4.602;2022-11-12T15:29:14;16.10;1.00
14699;DHT22;7439;50.804;4.602;2022-11-12T15:31:45;15.60;1.00
14699;DHT22;7439;50.804;4.602;2022-11-12T15:34:28;15.30;1.00
14699;DHT22;7439;50.804;4.602;2022-11-12T15:36:57;14.90;9.60
14699;DHT22;7439;50.804;4.602;2022-11-12T15:39:26;14.70;37.30
14699;DHT22;7439;50.804;4.602;2022-11-12T15:41:58;14.50;58.60
14699;DHT22;7439;50.804;4.602;2022-11-12T15:44:31;14.30;86.60
14699;DHT22;7439;50.804;4.602;2022-11-12T15:47:00;14.10;99.90
14699;DHT22;7439;50.804;4.602;2022-11-12T15:49:27;13.90;99.90
14699;DHT22;7439;50.804;4.602;2022-11-12T15:51:54;13.70;99.90
14699;DHT22;7439;50.804;4.602;2022-11-12T15:54:21;13.60;99.90
14699;DHT22;7439;50.804;4.602;2022-11-12T15:56:49;13.40;99.90
14699;DHT22;7439;50.804;4.602;2022-11-12T15:59:17;13.30;99.90
14699;DHT22;7439;50.804;4.602;2022-11-12T16:01:45;13.10;99.90
14699;DHT22;7439;50.804;4.602;2022-11-12T16:04:13;12.90;99.90
14699;DHT22;7439;50.804;4.602;2022-11-12T16:06:40;12.70;99.90
14699;DHT22;7439;50.804;4.602;2022-11-12T16:09:07;12.50;99.90
14699;DHT22;7439;50.804;4.602;2022-11-12T16:11:34;12.30;99.90
14699;DHT22;7439;50.804;4.602;2022-11-12T16:14:02;12.10;99.90
14699;DHT22;7439;50.804;4.602;2022-11-12T16:16:30;12.10;99.90
14699;DHT22;7439;50.804;4.602;2022-11-12T16:18:57;11.90;99.90
14699;DHT22;7439;50.804;4.602;2022-11-12T16:21:26;11.90;1.00
14699;DHT22;7439;50.804;4.602;2022-11-12T16:23:53;11.70;1.00
14699;DHT22;7439;50.804;4.602;2022-11-12T16:26:26;11.60;1.00
14699;DHT22;7439;50.804;4.602;2022-11-12T16:28:54;11.50;1.00
14699;DHT22;7439;50.804;4.602;2022-11-12T16:31:22;11.40;1.00
14699;DHT22;7439;50.804;4.602;2022-11-12T16:33:49;11.30;1.00
14699;DHT22;7439;50.804;4.602;2022-11-12T16:36:16;11.30;1.00
14699;DHT22;7439;50.804;4.602;2022-11-12T16:38:45;11.00;1.00
14699;DHT22;7439;50.804;4.602;2022-11-12T16:41:13;10.90;1.00
14699;DHT22;7439;50.804;4.602;2022-11-12T16:43:41;10.80;1.00